createdAt,value
2023-05-10T00:01:46.777Z,15.26
2023-05-10T00:04:14.679Z,15.36
2023-05-10T00:06:44.207Z,15.36
2023-05-10T00:09:11.703Z,15.41
2023-05-10T00:11:39.231Z,15.39
2023-05-10T00:14:06.733Z,15.31
2023-05-10T00:19:01.185Z,15.40
2023-05-10T00:21:29.343Z,15.35
2023-05-10T00:23:58.192Z,15.08
2023-05-10T00:26:25.721Z,15.23
2023-05-10T00:28:53.270Z,15.17
2023-05-10T00:31:20.886Z,15.27
2023-05-10T00:33:48.402Z,15.22
2023-05-10T00:36:15.877Z,15.12
2023-05-10T00:38:43.384Z,15.10
2023-05-10T00:41:12.220Z,15.09
2023-05-10T00:43:39.693Z,15.17
2023-05-10T00:46:07.684Z,15.19
2023-05-10T00:48:36.247Z,15.12
2023-05-10T00:51:04.518Z,14.96
2023-05-10T00:53:33.140Z,15.00
2023-05-10T00:56:01.068Z,15.05
2023-05-10T00:58:31.806Z,15.02
2023-05-10T01:01:00.370Z,14.98
2023-05-10T01:03:28.164Z,14.91
2023-05-10T01:05:56.092Z,15.14
2023-05-10T01:08:23.757Z,15.04
2023-05-10T01:10:51.645Z,14.99
2023-05-10T01:13:32.351Z,15.14
2023-05-10T01:16:02.862Z,15.12
2023-05-10T01:18:32.724Z,15.11
2023-05-10T01:21:13.079Z,14.88
2023-05-10T01:24:11.479Z,14.84
2023-05-10T01:27:09.527Z,14.95
2023-05-10T01:30:15.356Z,14.86
2023-05-10T01:32:52.325Z,14.75
2023-05-10T01:35:28.721Z,14.84
2023-05-10T01:38:06.204Z,15.00
2023-05-10T01:40:39.448Z,14.78
2023-05-10T01:43:19.383Z,14.76
2023-05-10T01:45:58.222Z,14.94
2023-05-10T01:48:30.519Z,14.88
2023-05-10T01:50:59.638Z,14.97
2023-05-10T01:53:28.450Z,14.96
2023-05-10T01:55:57.608Z,15.01
2023-05-10T01:58:29.501Z,14.90
2023-05-10T02:00:59.309Z,14.94
2023-05-10T02:03:30.239Z,14.94
2023-05-10T02:05:59.358Z,14.83
2023-05-10T02:08:27.918Z,14.91
2023-05-10T02:10:58.113Z,14.73
2023-05-10T02:13:27.935Z,14.64
2023-05-10T02:15:57.083Z,14.70
2023-05-10T02:18:27.646Z,14.78
2023-05-10T02:20:58.284Z,14.46
2023-05-10T02:23:27.201Z,14.53
2023-05-10T02:25:56.924Z,14.67
2023-05-10T02:28:26.259Z,14.67
2023-05-10T02:30:54.865Z,14.70
2023-05-10T02:33:23.249Z,14.52
2023-05-10T02:35:52.805Z,14.61
2023-05-10T02:38:24.498Z,14.54
2023-05-10T02:40:52.993Z,14.02
2023-05-10T02:43:23.324Z,14.21
2023-05-10T02:45:51.176Z,13.74
2023-05-10T02:48:18.967Z,13.84
2023-05-10T02:50:47.668Z,13.59
2023-05-10T02:53:20.400Z,13.64
2023-05-10T02:55:53.498Z,13.86
2023-05-10T02:58:21.735Z,13.52
2023-05-10T03:00:49.238Z,13.71
2023-05-10T03:03:16.710Z,13.39
2023-05-10T03:05:44.306Z,13.80
2023-05-10T03:08:12.132Z,13.67
2023-05-10T03:10:48.597Z,13.64
2023-05-10T03:13:31.047Z,13.78
2023-05-10T03:16:06.667Z,13.44
2023-05-10T03:18:42.248Z,13.48
2023-05-10T03:21:13.313Z,13.50
2023-05-10T03:23:45.043Z,13.26
2023-05-10T03:26:19.138Z,13.74
2023-05-10T03:28:50.414Z,13.88
2023-05-10T03:31:19.043Z,13.58
2023-05-10T03:33:49.893Z,13.51
2023-05-10T03:36:17.686Z,13.82
2023-05-10T03:38:45.201Z,13.59
2023-05-10T03:41:12.665Z,13.41
2023-05-10T03:43:40.119Z,13.50
2023-05-10T03:46:09.109Z,13.56
2023-05-10T03:48:36.563Z,13.37
2023-05-10T03:51:04.134Z,13.20
2023-05-10T03:53:31.802Z,13.48
2023-05-10T03:55:59.335Z,13.41
2023-05-10T03:58:26.815Z,12.96
2023-05-10T04:00:54.267Z,12.92
2023-05-10T04:03:23.870Z,12.93
2023-05-10T04:05:59.983Z,12.84
2023-05-10T04:08:27.626Z,12.76
2023-05-10T04:10:55.115Z,12.94
2023-05-10T04:13:23.493Z,12.68
2023-05-10T04:15:51.042Z,12.71
2023-05-10T04:18:18.615Z,12.69
2023-05-10T04:20:47.438Z,12.74
2023-05-10T04:23:15.167Z,12.84
2023-05-10T04:25:42.744Z,12.57
2023-05-10T04:28:10.319Z,12.57
2023-05-10T04:30:38.024Z,12.71
2023-05-10T04:33:05.597Z,12.57
2023-05-10T04:35:33.110Z,12.49
2023-05-10T04:38:01.906Z,12.76
2023-05-10T04:40:29.612Z,12.59
2023-05-10T04:42:57.244Z,12.50
2023-05-10T04:45:24.682Z,12.32
2023-05-10T04:47:52.140Z,12.62
2023-05-10T04:50:19.955Z,12.59
2023-05-10T04:52:47.435Z,12.38
2023-05-10T04:55:17.022Z,12.43
2023-05-10T04:57:44.503Z,12.54
2023-05-10T05:00:13.143Z,12.54
2023-05-10T05:02:44.904Z,12.60
2023-05-10T05:05:12.551Z,12.53
2023-05-10T05:07:40.371Z,12.70
2023-05-10T05:10:09.012Z,12.82
2023-05-10T05:12:37.816Z,12.69
2023-05-10T05:15:07.295Z,12.75
2023-05-10T05:17:36.634Z,12.82
2023-05-10T05:20:05.037Z,12.58
2023-05-10T05:22:32.378Z,12.82
2023-05-10T05:25:00.000Z,12.54
2023-05-10T05:27:28.741Z,12.68
2023-05-10T05:29:58.506Z,12.74
2023-05-10T05:32:26.853Z,12.62
2023-05-10T05:34:54.219Z,12.62
2023-05-10T05:37:23.442Z,12.67
2023-05-10T05:39:50.976Z,12.79
2023-05-10T05:42:19.691Z,12.98
2023-05-10T05:44:47.407Z,12.97
2023-05-10T05:47:16.239Z,12.91
2023-05-10T05:49:46.534Z,13.36
2023-05-10T05:52:14.357Z,12.89
2023-05-10T05:54:45.110Z,13.17
2023-05-10T05:57:12.808Z,13.28
2023-05-10T05:59:42.800Z,13.12
2023-05-10T06:02:10.515Z,13.04
2023-05-10T06:04:39.852Z,13.28
2023-05-10T06:07:07.684Z,13.15
2023-05-10T06:09:35.224Z,13.08
2023-05-10T06:12:02.676Z,12.78
2023-05-10T06:14:30.126Z,12.99
2023-05-10T06:16:57.746Z,12.83
2023-05-10T06:19:25.310Z,12.94
2023-05-10T06:21:54.131Z,13.23
2023-05-10T06:24:22.119Z,13.12
2023-05-10T06:26:50.863Z,13.21
2023-05-10T06:29:18.478Z,13.22
2023-05-10T06:31:46.120Z,13.36
2023-05-10T06:34:14.409Z,13.40
2023-05-10T06:36:42.061Z,13.51
2023-05-10T06:39:12.547Z,13.62
2023-05-10T06:41:40.031Z,13.65
2023-05-10T06:44:07.481Z,13.53
2023-05-10T06:46:35.026Z,13.36
2023-05-10T06:49:02.512Z,13.52
2023-05-10T06:51:29.978Z,13.70
2023-05-10T06:54:00.254Z,13.60
2023-05-10T06:56:29.166Z,13.75
2023-05-10T06:58:56.734Z,13.63
2023-05-10T07:01:24.437Z,13.74
2023-05-10T07:03:51.998Z,13.77
2023-05-10T07:06:32.260Z,13.83
2023-05-10T07:09:01.250Z,13.80
2023-05-10T07:11:30.125Z,13.53
2023-05-10T07:13:57.636Z,13.70
2023-05-10T07:16:25.103Z,13.92
2023-05-10T07:18:53.928Z,13.75
2023-05-10T07:21:21.869Z,13.51
2023-05-10T07:23:49.498Z,13.84
2023-05-10T07:26:17.009Z,14.14
2023-05-10T07:28:45.811Z,13.97
2023-05-10T07:31:13.246Z,13.97
2023-05-10T07:33:40.957Z,13.81
2023-05-10T07:36:08.728Z,13.87
2023-05-10T07:38:37.119Z,13.94
2023-05-10T07:41:05.525Z,13.98
2023-05-10T07:43:33.004Z,14.16
2023-05-10T07:46:02.004Z,13.79
2023-05-10T07:48:29.501Z,14.13
2023-05-10T07:50:57.281Z,14.13
2023-05-10T07:53:24.842Z,13.99
2023-05-10T07:55:52.700Z,14.10
2023-05-10T07:58:20.430Z,14.17
2023-05-10T08:00:48.103Z,14.48
2023-05-10T08:03:17.169Z,14.62
2023-05-10T08:05:44.706Z,14.58
2023-05-10T08:08:12.299Z,14.73
2023-05-10T08:10:40.896Z,14.43
2023-05-10T08:13:08.324Z,14.54
2023-05-10T08:15:35.836Z,14.53
2023-05-10T08:18:03.322Z,14.86
2023-05-10T08:20:32.126Z,14.97
2023-05-10T08:22:59.700Z,14.83
2023-05-10T08:25:27.373Z,14.76
2023-05-10T08:27:54.876Z,14.55
2023-05-10T08:30:22.605Z,14.76
2023-05-10T08:32:50.215Z,14.41
2023-05-10T08:35:18.314Z,14.36
2023-05-10T08:37:47.279Z,14.12
2023-05-10T08:40:17.258Z,13.90
2023-05-10T08:42:51.388Z,13.52
2023-05-10T08:45:20.994Z,13.77
2023-05-10T08:47:48.830Z,13.86
2023-05-10T08:50:18.318Z,13.68
2023-05-10T08:52:48.730Z,13.44
2023-05-10T08:55:17.799Z,13.62
2023-05-10T08:57:45.527Z,13.72
2023-05-10T09:00:17.288Z,13.90
2023-05-10T09:02:46.732Z,13.83
2023-05-10T09:05:17.224Z,14.02
2023-05-10T09:07:45.060Z,14.08
2023-05-10T09:10:15.563Z,14.81
2023-05-10T09:12:44.883Z,15.09
2023-05-10T09:15:12.736Z,15.81
2023-05-10T09:17:42.343Z,15.19
2023-05-10T09:20:10.173Z,14.82
2023-05-10T09:22:38.620Z,15.29
2023-05-10T09:25:07.970Z,14.91
2023-05-10T09:27:37.351Z,15.69
2023-05-10T09:30:08.755Z,15.22
2023-05-10T09:32:40.368Z,15.35
2023-05-10T09:35:09.466Z,15.55
2023-05-10T09:37:36.985Z,15.68
2023-05-10T09:40:08.391Z,15.52
2023-05-10T09:42:37.247Z,15.68
2023-05-10T09:45:08.491Z,15.89
2023-05-10T09:47:37.107Z,16.04
2023-05-10T09:50:05.583Z,15.63
2023-05-10T09:52:47.197Z,15.63
2023-05-10T09:55:14.940Z,15.59
2023-05-10T09:57:44.129Z,16.04
2023-05-10T10:00:13.292Z,16.33
2023-05-10T10:02:41.192Z,16.43
2023-05-10T10:05:09.490Z,16.61
2023-05-10T10:07:37.182Z,16.20
2023-05-10T10:10:05.768Z,15.84
2023-05-10T10:12:33.306Z,15.67
2023-05-10T10:15:02.660Z,15.41
2023-05-10T10:17:32.590Z,15.36
2023-05-10T10:20:00.611Z,15.42
2023-05-10T10:22:28.082Z,15.54
2023-05-10T10:24:57.785Z,15.52
2023-05-10T10:27:30.627Z,15.35
2023-05-10T10:30:08.564Z,15.31
2023-05-10T10:32:49.724Z,15.26
2023-05-10T10:35:18.153Z,15.47
2023-05-10T10:37:47.771Z,15.49
2023-05-10T10:40:25.698Z,15.86
2023-05-10T10:42:54.515Z,15.80
2023-05-10T10:45:24.693Z,15.82
2023-05-10T10:48:21.259Z,15.75
2023-05-10T10:50:48.757Z,15.60
2023-05-10T10:53:16.247Z,15.64
2023-05-10T10:55:50.035Z,15.91
2023-05-10T11:01:13.902Z,16.26
2023-05-10T11:03:41.757Z,15.86
2023-05-10T11:06:09.846Z,15.96
2023-05-10T11:08:44.701Z,16.12
2023-05-10T11:11:16.786Z,15.59
2023-05-10T11:13:50.892Z,15.50
2023-05-10T11:16:22.247Z,15.50
2023-05-10T11:18:55.228Z,15.70
2023-05-10T11:21:23.143Z,15.79
2023-05-10T11:23:52.664Z,15.74
2023-05-10T11:26:23.970Z,15.76
2023-05-10T11:28:51.900Z,15.77
2023-05-10T11:31:21.857Z,15.63
2023-05-10T11:33:50.884Z,15.59
2023-05-10T11:36:19.769Z,15.76
2023-05-10T11:38:47.508Z,15.77
2023-05-10T11:41:15.788Z,15.78
2023-05-10T11:43:43.822Z,15.47
2023-05-10T11:46:13.886Z,15.60
2023-05-10T11:48:43.829Z,15.68
2023-05-10T11:51:12.743Z,15.80
2023-05-10T11:53:40.318Z,15.94
2023-05-10T11:56:08.961Z,15.70
2023-05-10T11:58:37.467Z,15.86
2023-05-10T12:01:06.791Z,15.81
2023-05-10T12:03:34.975Z,16.16
2023-05-10T12:06:04.376Z,16.38
2023-05-10T12:08:32.683Z,16.30
2023-05-10T12:11:06.602Z,16.24
2023-05-10T12:13:34.066Z,16.08
2023-05-10T12:16:01.676Z,16.54
2023-05-10T12:18:29.239Z,16.20
2023-05-10T12:21:06.435Z,16.36
2023-05-10T12:23:34.300Z,16.39
2023-05-10T12:26:04.743Z,16.31
2023-05-10T12:28:32.794Z,16.59
2023-05-10T12:31:01.719Z,16.74
2023-05-10T12:33:29.340Z,16.71
2023-05-10T12:35:57.278Z,16.96
2023-05-10T12:38:30.258Z,17.01
2023-05-10T12:40:58.677Z,16.92
2023-05-10T12:43:26.273Z,17.10
2023-05-10T12:45:53.778Z,16.94
2023-05-10T12:48:21.690Z,16.94
2023-05-10T12:50:49.312Z,16.70
2023-05-10T12:53:17.438Z,17.15
2023-05-10T12:55:46.572Z,17.14
2023-05-10T12:58:24.062Z,16.83
2023-05-10T13:01:01.873Z,17.02
2023-05-10T13:03:29.515Z,17.09
2023-05-10T13:05:57.025Z,16.93
2023-05-10T13:08:24.662Z,16.77
2023-05-10T13:10:54.112Z,16.82
2023-05-10T13:13:21.553Z,16.94
2023-05-10T13:15:48.970Z,17.13
2023-05-10T13:18:16.687Z,16.80
2023-05-10T13:20:45.140Z,16.92
2023-05-10T13:23:12.744Z,17.01
2023-05-10T13:25:40.207Z,16.90
2023-05-10T13:28:09.001Z,16.66
2023-05-10T13:30:36.459Z,16.74
2023-05-10T13:33:04.025Z,16.93
2023-05-10T13:35:31.518Z,17.11
2023-05-10T13:37:59.058Z,17.11
2023-05-10T13:40:26.621Z,16.73
2023-05-10T13:42:54.173Z,16.63
2023-05-10T13:45:23.018Z,16.37
2023-05-10T13:47:50.608Z,16.30
2023-05-10T13:50:18.992Z,16.47
2023-05-10T13:52:46.468Z,16.12
2023-05-10T13:55:14.712Z,16.12
2023-05-10T13:57:43.781Z,16.16
2023-05-10T14:00:12.208Z,16.29
2023-05-10T14:02:41.428Z,16.31
2023-05-10T14:05:09.439Z,16.71
2023-05-10T14:07:36.952Z,16.77
2023-05-10T14:10:04.763Z,16.67
2023-05-10T14:12:32.319Z,16.32
2023-05-10T14:15:00.034Z,16.25
2023-05-10T14:17:27.536Z,16.23
2023-05-10T14:19:56.603Z,16.28
2023-05-10T14:22:24.040Z,16.51
2023-05-10T14:24:51.639Z,16.27
2023-05-10T14:27:19.116Z,16.21
2023-05-10T14:29:46.551Z,16.07
2023-05-10T14:32:14.105Z,16.48
2023-05-10T14:34:41.659Z,16.15
2023-05-10T14:37:12.261Z,16.12
2023-05-10T14:39:39.981Z,16.09
2023-05-10T14:42:07.549Z,15.76
2023-05-10T14:44:35.053Z,15.54
2023-05-10T14:47:02.593Z,15.47
2023-05-10T14:49:30.127Z,15.59
2023-05-10T14:51:57.732Z,15.22
2023-05-10T14:54:26.861Z,15.07
2023-05-10T14:56:54.604Z,15.20
2023-05-10T14:59:27.362Z,15.06
2023-05-10T15:01:55.366Z,15.11
2023-05-10T15:04:23.592Z,15.02
2023-05-10T15:06:52.329Z,14.77
2023-05-10T15:09:20.110Z,14.78
2023-05-10T15:11:49.134Z,14.79
2023-05-10T15:14:16.659Z,14.61
2023-05-10T15:16:44.245Z,14.55
2023-05-10T15:19:11.801Z,14.55
2023-05-10T15:21:39.552Z,14.69
2023-05-10T15:24:07.232Z,14.54
2023-05-10T15:26:34.742Z,14.72
2023-05-10T15:29:03.597Z,14.69
2023-05-10T15:31:31.227Z,14.72
2023-05-10T15:34:00.033Z,14.41
2023-05-10T15:36:27.600Z,14.38
2023-05-10T15:38:55.524Z,14.23
2023-05-10T15:41:23.000Z,14.22
2023-05-10T15:43:51.134Z,14.39
2023-05-10T15:46:19.936Z,14.21
2023-05-10T15:48:47.461Z,14.28
2023-05-10T15:51:15.436Z,14.29
2023-05-10T15:53:56.506Z,14.41
2023-05-10T15:56:30.992Z,14.05
2023-05-10T15:58:58.494Z,14.13
2023-05-10T16:01:27.495Z,14.09
2023-05-10T16:03:55.090Z,14.42
2023-05-10T16:06:22.673Z,14.61
2023-05-10T16:08:50.237Z,14.34
2023-05-10T16:11:17.751Z,14.42
2023-05-10T16:13:45.191Z,14.46
2023-05-10T16:16:12.742Z,14.56
2023-05-10T16:18:41.758Z,14.47
2023-05-10T16:21:09.275Z,14.48
2023-05-10T16:23:36.893Z,14.32
2023-05-10T16:26:04.565Z,14.37
2023-05-10T16:28:32.418Z,14.17
2023-05-10T16:30:59.921Z,14.35
2023-05-10T16:33:27.605Z,14.10
2023-05-10T16:35:56.596Z,14.05
2023-05-10T16:38:24.048Z,14.20
2023-05-10T16:40:51.544Z,14.16
2023-05-10T16:43:19.164Z,14.32
2023-05-10T16:45:46.765Z,14.18
2023-05-10T16:48:14.312Z,14.29
2023-05-10T16:50:44.472Z,14.10
2023-05-10T16:53:13.315Z,14.21
2023-05-10T16:55:41.196Z,14.36
2023-05-10T16:58:09.890Z,14.28
2023-05-10T17:00:37.367Z,14.33
2023-05-10T17:03:05.273Z,14.02
2023-05-10T17:05:32.781Z,13.96
2023-05-10T17:08:00.806Z,14.05
2023-05-10T17:10:29.726Z,13.87
2023-05-10T17:12:57.314Z,14.17
2023-05-10T17:15:24.839Z,13.89
2023-05-10T17:17:52.526Z,14.11
2023-05-10T17:20:20.315Z,14.09
2023-05-10T17:22:47.924Z,14.13
2023-05-10T17:25:15.905Z,13.88
2023-05-10T17:27:44.991Z,13.94
2023-05-10T17:30:13.680Z,14.23
2023-05-10T17:32:41.232Z,13.84
2023-05-10T17:35:09.914Z,13.88
2023-05-10T17:37:37.372Z,14.07
2023-05-10T17:40:07.723Z,14.08
2023-05-10T17:42:35.197Z,13.93
2023-05-10T17:45:04.291Z,13.68
2023-05-10T17:47:31.939Z,13.76
2023-05-10T17:49:59.396Z,13.78
2023-05-10T17:52:26.950Z,13.70
2023-05-10T17:54:54.387Z,13.63
2023-05-10T17:57:22.260Z,13.60
2023-05-10T17:59:49.793Z,13.98
2023-05-10T18:02:18.671Z,13.75
2023-05-10T18:04:46.204Z,13.75
2023-05-10T18:07:13.882Z,13.79
2023-05-10T18:09:41.347Z,14.01
2023-05-10T18:12:08.927Z,13.54
2023-05-10T18:14:41.253Z,13.56
2023-05-10T18:17:10.382Z,13.62
2023-05-10T18:19:39.282Z,13.56
2023-05-10T18:22:08.945Z,13.77
2023-05-10T18:24:40.314Z,13.76
2023-05-10T18:27:08.916Z,13.55
2023-05-10T18:29:37.322Z,13.77
2023-05-10T18:32:04.930Z,13.76
2023-05-10T18:34:32.394Z,13.94
2023-05-10T18:37:02.390Z,13.87
2023-05-10T18:39:30.580Z,13.92
2023-05-10T18:42:00.483Z,14.11
2023-05-10T18:44:29.206Z,14.30
2023-05-10T18:46:56.745Z,14.30
2023-05-10T18:49:24.299Z,14.28
2023-05-10T18:51:52.005Z,14.36
2023-05-10T18:54:23.328Z,13.87
2023-05-10T18:56:50.981Z,13.65
2023-05-10T18:59:18.563Z,13.93
2023-05-10T19:01:46.162Z,13.90
2023-05-10T19:04:13.745Z,13.95
2023-05-10T19:06:44.255Z,14.03
2023-05-10T19:09:11.869Z,14.05
2023-05-10T19:11:43.143Z,14.06
2023-05-10T19:14:10.679Z,14.02
2023-05-10T19:16:38.424Z,13.98
2023-05-10T19:19:08.179Z,14.03
2023-05-10T19:21:35.971Z,14.01
2023-05-10T19:24:04.688Z,14.01
2023-05-10T19:26:32.252Z,13.95
2023-05-10T19:29:02.732Z,14.06
2023-05-10T19:31:30.910Z,14.06
2023-05-10T19:34:00.897Z,13.99
2023-05-10T19:36:28.691Z,13.96
2023-05-10T19:38:57.888Z,14.05
2023-05-10T19:41:25.636Z,13.84
2023-05-10T19:43:53.160Z,13.86
2023-05-10T19:46:22.047Z,13.84
2023-05-10T19:48:50.040Z,13.87
2023-05-10T19:51:17.726Z,13.95
2023-05-10T19:53:45.232Z,13.96
2023-05-10T19:56:12.861Z,14.04
2023-05-10T19:58:40.906Z,13.83
2023-05-10T20:01:08.436Z,13.89
2023-05-10T20:03:37.372Z,13.91
2023-05-10T20:06:05.274Z,13.89
2023-05-10T20:08:32.739Z,13.87
2023-05-10T20:11:02.516Z,13.93
2023-05-10T20:13:30.782Z,13.85
2023-05-10T20:15:59.373Z,13.78
2023-05-10T20:18:27.204Z,13.77
2023-05-10T20:20:56.714Z,13.79
2023-05-10T20:23:24.318Z,13.86
2023-05-10T20:25:51.915Z,13.83
2023-05-10T20:28:23.874Z,13.88
2023-05-10T20:30:53.687Z,13.85
2023-05-10T20:33:21.816Z,13.78
2023-05-10T20:35:51.096Z,13.66
2023-05-10T20:38:20.934Z,13.72
2023-05-10T20:40:49.023Z,13.70
2023-05-10T20:43:16.500Z,13.74
2023-05-10T20:45:43.966Z,13.76
2023-05-10T20:48:11.594Z,13.78
2023-05-10T20:50:39.311Z,13.65
2023-05-10T20:53:06.913Z,13.46
2023-05-10T20:55:35.969Z,13.71
2023-05-10T20:58:04.937Z,13.51
2023-05-10T21:00:32.822Z,13.55
2023-05-10T21:03:00.314Z,13.47
2023-05-10T21:05:27.930Z,13.61
2023-05-10T21:07:55.523Z,13.32
2023-05-10T21:10:23.055Z,13.51
2023-05-10T21:12:51.928Z,13.64
2023-05-10T21:15:19.380Z,13.62
2023-05-10T21:17:46.876Z,13.49
2023-05-10T21:20:14.959Z,13.61
2023-05-10T21:22:42.654Z,13.58
2023-05-10T21:25:10.772Z,13.49
2023-05-10T21:27:38.326Z,13.51
2023-05-10T21:30:08.651Z,13.45
2023-05-10T21:32:36.709Z,13.35
2023-05-10T21:35:04.378Z,13.11
2023-05-10T21:37:31.846Z,13.40
2023-05-10T21:39:59.285Z,13.18
2023-05-10T21:42:26.849Z,13.27
2023-05-10T21:44:54.499Z,13.31
2023-05-10T21:47:23.352Z,13.29
2023-05-10T21:49:51.383Z,13.27
2023-05-10T21:52:18.876Z,13.31
2023-05-10T21:54:46.380Z,13.02
2023-05-10T21:57:14.015Z,13.26
2023-05-10T21:59:41.652Z,13.14
2023-05-10T22:02:09.226Z,13.34
2023-05-10T22:04:38.035Z,12.90
2023-05-10T22:07:05.534Z,13.00
2023-05-10T22:09:32.982Z,12.96
2023-05-10T22:12:00.537Z,13.11
2023-05-10T22:14:28.031Z,13.21
2023-05-10T22:16:55.635Z,13.20
2023-05-10T22:19:23.122Z,13.11
2023-05-10T22:21:51.930Z,13.08
2023-05-10T22:24:19.554Z,12.87
2023-05-10T22:26:46.979Z,13.01
2023-05-10T22:29:14.447Z,12.96
2023-05-10T22:31:41.941Z,13.15
2023-05-10T22:34:09.445Z,13.23
2023-05-10T22:36:37.231Z,13.15
2023-05-10T22:39:06.078Z,13.20
2023-05-10T22:41:34.070Z,13.07
2023-05-10T22:44:02.239Z,13.17
2023-05-10T22:46:30.128Z,12.85
2023-05-10T22:48:57.621Z,12.98
2023-05-10T22:51:25.107Z,12.88
2023-05-10T22:53:52.522Z,12.61
2023-05-10T22:56:21.681Z,12.56
2023-05-10T22:58:49.281Z,12.43
2023-05-10T23:01:17.009Z,12.39
2023-05-10T23:03:44.607Z,12.59
2023-05-10T23:06:12.069Z,12.87
2023-05-10T23:08:39.651Z,12.94
2023-05-10T23:11:07.093Z,13.02
2023-05-10T23:13:35.897Z,13.11
2023-05-10T23:16:06.980Z,13.04
2023-05-10T23:18:34.849Z,12.97
2023-05-10T23:21:02.429Z,13.02
2023-05-10T23:23:30.027Z,12.85
2023-05-10T23:25:57.621Z,12.90
2023-05-10T23:28:25.117Z,12.79
2023-05-10T23:30:57.339Z,12.83
2023-05-10T23:33:25.861Z,12.89
2023-05-10T23:35:53.959Z,13.01
2023-05-10T23:38:21.596Z,13.04
2023-05-10T23:40:49.965Z,12.91
2023-05-10T23:43:17.624Z,13.01
2023-05-10T23:45:53.391Z,12.91
2023-05-10T23:48:22.396Z,12.96
2023-05-10T23:50:50.573Z,13.03
2023-05-10T23:53:18.266Z,12.98
2023-05-10T23:55:46.302Z,12.98
2023-05-10T23:58:13.875Z,12.97
